createdAt,value
2023-04-06T00:00:00.763Z,0.13
2023-04-06T00:02:28.850Z,0.20
2023-04-06T00:04:56.931Z,0.10
2023-04-06T00:07:26.452Z,0.20
2023-04-06T00:09:54.416Z,0.20
2023-04-06T00:12:22.392Z,0.20
2023-04-06T00:14:50.465Z,0.20
2023-04-06T00:17:18.542Z,0.10
2023-04-06T00:19:46.641Z,0.20
2023-04-06T00:22:14.623Z,0.10
2023-04-06T00:24:44.044Z,0.10
2023-04-06T00:27:11.985Z,0.20
2023-04-06T00:29:42.005Z,0.10
2023-04-06T00:32:10.530Z,0.20
2023-04-06T00:34:38.524Z,0.20
2023-04-06T00:37:06.867Z,0.10
2023-04-06T00:39:34.810Z,0.20
2023-04-06T00:42:12.943Z,0.10
2023-04-06T00:44:41.043Z,0.10
2023-04-06T00:47:09.328Z,0.10
2023-04-06T00:49:37.648Z,0.20
2023-04-06T00:52:05.527Z,0.20
2023-04-06T00:54:33.850Z,0.20
2023-04-06T00:57:03.734Z,0.20
2023-04-06T00:59:32.007Z,0.10
2023-04-06T01:02:00.671Z,0.20
2023-04-06T01:04:29.313Z,0.20
2023-04-06T01:06:57.518Z,0.10
2023-04-06T01:09:25.807Z,0.20
2023-04-06T01:11:53.842Z,0.13
2023-04-06T01:14:23.783Z,0.10
2023-04-06T01:16:51.882Z,0.20
2023-04-06T01:19:20.301Z,0.10
2023-04-06T01:21:50.332Z,0.20
2023-04-06T01:24:19.914Z,0.20
2023-04-06T01:26:48.002Z,0.10
2023-04-06T01:29:15.936Z,0.10
2023-04-06T01:31:44.164Z,0.10
2023-04-06T01:34:12.385Z,0.10
2023-04-06T01:36:40.616Z,0.10
2023-04-06T01:39:09.096Z,0.20
2023-04-06T01:41:38.672Z,0.10
2023-04-06T01:44:07.164Z,0.20
2023-04-06T01:46:35.338Z,0.20
2023-04-06T01:49:03.392Z,0.20
2023-04-06T01:51:31.891Z,0.20
2023-04-06T01:53:59.943Z,0.10
2023-04-06T01:56:27.916Z,0.10
2023-04-06T01:58:57.331Z,0.10
2023-04-06T02:01:25.608Z,0.20
2023-04-06T02:03:53.575Z,0.10
2023-04-06T02:06:21.959Z,0.10
2023-04-06T02:08:50.036Z,0.10
2023-04-06T02:11:17.945Z,0.10
2023-04-06T02:13:45.940Z,0.10
2023-04-06T02:16:16.038Z,0.10
2023-04-06T02:18:44.100Z,0.10
2023-04-06T02:21:12.004Z,0.20
2023-04-06T02:23:39.929Z,0.20
2023-04-06T02:26:07.855Z,0.10
2023-04-06T02:28:35.783Z,0.10
2023-04-06T02:31:03.882Z,0.20
2023-04-06T02:33:33.195Z,0.10
2023-04-06T02:36:01.239Z,0.10
2023-04-06T02:38:29.355Z,0.20
2023-04-06T02:40:57.678Z,0.17
2023-04-06T02:43:25.813Z,0.10
2023-04-06T02:45:53.971Z,0.10
2023-04-06T02:48:22.142Z,0.20
2023-04-06T02:50:51.649Z,0.20
2023-04-06T02:53:19.720Z,0.20
2023-04-06T02:55:47.684Z,0.13
2023-04-06T02:58:15.566Z,0.10
2023-04-06T03:00:43.568Z,0.20
2023-04-06T03:03:11.695Z,0.10
2023-04-06T03:05:39.742Z,0.20
2023-04-06T03:08:09.142Z,0.10
2023-04-06T03:10:37.192Z,0.10
2023-04-06T03:13:05.160Z,0.20
2023-04-06T03:15:33.177Z,0.20
2023-04-06T03:18:01.332Z,0.10
2023-04-06T03:20:29.300Z,0.20
2023-04-06T03:22:57.416Z,0.10
2023-04-06T03:25:26.787Z,0.10
2023-04-06T03:27:54.649Z,0.10
2023-04-06T03:30:22.852Z,0.20
2023-04-06T03:32:50.967Z,0.20
2023-04-06T03:35:18.994Z,0.10
2023-04-06T03:37:47.152Z,0.10
2023-04-06T03:40:15.648Z,0.20
2023-04-06T03:42:45.189Z,0.10
2023-04-06T03:45:14.119Z,0.10
2023-04-06T03:47:42.144Z,0.13
2023-04-06T03:50:11.105Z,0.10
2023-04-06T03:52:39.076Z,0.20
2023-04-06T03:55:08.452Z,0.10
2023-04-06T03:57:36.335Z,0.10
2023-04-06T04:00:07.052Z,0.10
2023-04-06T04:02:35.181Z,0.10
2023-04-06T04:05:03.629Z,0.20
2023-04-06T04:07:31.757Z,0.10
2023-04-06T04:09:59.803Z,0.20
2023-04-06T04:12:27.785Z,0.10
2023-04-06T04:14:55.839Z,0.10
2023-04-06T04:17:26.812Z,0.10
2023-04-06T04:19:54.805Z,0.10
2023-04-06T04:22:22.817Z,0.10
2023-04-06T04:24:50.770Z,0.10
2023-04-06T04:27:19.000Z,0.20
2023-04-06T04:29:48.096Z,0.20
2023-04-06T04:32:16.601Z,0.10
2023-04-06T04:34:48.605Z,0.13
2023-04-06T04:37:16.601Z,0.10
2023-04-06T04:39:44.508Z,0.20
2023-04-06T04:42:12.396Z,0.20
2023-04-06T04:44:40.750Z,0.20
2023-04-06T04:47:08.634Z,0.10
2023-04-06T04:49:36.704Z,0.10
2023-04-06T04:52:06.122Z,0.10
2023-04-06T04:54:34.019Z,0.20
2023-04-06T04:57:03.709Z,0.10
2023-04-06T04:59:31.830Z,0.10
2023-04-06T05:01:59.723Z,0.13
2023-04-06T05:04:27.854Z,0.10
2023-04-06T05:07:06.849Z,0.10
2023-04-06T05:09:34.919Z,0.10
2023-04-06T05:12:03.106Z,0.10
2023-04-06T05:14:31.505Z,0.10
2023-04-06T05:16:59.458Z,0.10
2023-04-06T05:19:27.567Z,0.10
2023-04-06T05:21:55.638Z,0.10
2023-04-06T05:24:24.998Z,0.10
2023-04-06T05:26:52.982Z,0.10
2023-04-06T05:29:21.185Z,0.10
2023-04-06T05:31:49.545Z,0.10
2023-04-06T05:34:17.679Z,0.10
2023-04-06T05:36:45.614Z,0.17
2023-04-06T05:39:14.038Z,0.20
2023-04-06T05:41:43.292Z,0.10
2023-04-06T05:44:11.394Z,0.10
2023-04-06T05:46:39.332Z,0.10
2023-04-06T05:49:07.397Z,0.20
2023-04-06T05:51:35.382Z,0.10
2023-04-06T05:54:03.381Z,0.20
2023-04-06T05:56:33.019Z,0.10
2023-04-06T05:59:03.646Z,0.10
2023-04-06T06:01:31.829Z,0.10
2023-04-06T06:03:59.805Z,0.10
2023-04-06T06:06:29.700Z,0.10
2023-04-06T06:08:59.933Z,0.10
2023-04-06T06:11:27.883Z,0.10
2023-04-06T06:13:56.251Z,0.10
2023-04-06T06:16:25.655Z,0.10
2023-04-06T06:18:53.629Z,0.10
2023-04-06T06:21:21.504Z,0.10
2023-04-06T06:23:50.378Z,0.10
2023-04-06T06:26:18.562Z,0.10
2023-04-06T06:28:48.605Z,0.10
2023-04-06T06:31:16.644Z,0.20
2023-04-06T06:33:46.206Z,0.13
2023-04-06T06:36:14.150Z,0.10
2023-04-06T06:38:42.093Z,0.10
2023-04-06T06:41:10.114Z,0.10
2023-04-06T06:43:38.254Z,0.20
2023-04-06T06:46:07.058Z,0.10
2023-04-06T06:48:35.435Z,0.20
2023-04-06T06:51:05.153Z,0.20
2023-04-06T06:53:33.100Z,0.20
2023-04-06T06:56:01.042Z,0.20
2023-04-06T06:58:29.121Z,0.10
2023-04-06T07:00:59.363Z,0.20
2023-04-06T07:03:27.766Z,0.10
2023-04-06T07:05:56.012Z,0.13
2023-04-06T07:08:26.741Z,0.17
2023-04-06T07:10:57.201Z,0.20
2023-04-06T07:13:25.762Z,0.20
2023-04-06T07:15:54.095Z,0.10
2023-04-06T07:18:22.975Z,0.10
2023-04-06T07:20:51.251Z,0.20
2023-04-06T07:23:19.186Z,0.20
2023-04-06T07:25:48.533Z,0.37
2023-04-06T07:28:16.537Z,0.40
2023-04-06T07:30:44.587Z,0.50
2023-04-06T07:33:12.607Z,0.40
2023-04-06T07:35:40.847Z,0.50
2023-04-06T07:38:08.945Z,0.47
2023-04-06T07:40:36.844Z,0.50
2023-04-06T07:43:06.215Z,0.50
2023-04-06T07:45:34.249Z,0.52
2023-04-06T07:48:02.315Z,0.60
2023-04-06T07:50:30.581Z,0.50
2023-04-06T07:52:58.802Z,0.63
2023-04-06T07:55:26.763Z,0.70
2023-04-06T07:57:54.902Z,0.60
2023-04-06T08:00:24.574Z,0.60
2023-04-06T08:02:52.696Z,0.60
2023-04-06T08:05:20.744Z,0.50
2023-04-06T08:07:48.661Z,0.50
2023-04-06T08:10:16.754Z,0.50
2023-04-06T08:12:44.719Z,0.60
2023-04-06T08:15:13.015Z,0.60
2023-04-06T08:17:42.511Z,0.60
2023-04-06T08:20:11.195Z,0.60
2023-04-06T08:22:39.093Z,0.60
2023-04-06T08:25:08.230Z,0.70
2023-04-06T08:27:36.229Z,0.60
2023-04-06T08:30:04.683Z,0.60
2023-04-06T08:32:32.779Z,0.60
2023-04-06T08:35:02.152Z,0.60
2023-04-06T08:37:30.904Z,0.60
2023-04-06T08:39:59.934Z,0.60
2023-04-06T08:42:30.776Z,0.60
2023-04-06T08:44:58.782Z,0.60
2023-04-06T08:47:27.068Z,0.60
2023-04-06T08:49:55.918Z,0.60
2023-04-06T08:52:27.741Z,0.60
2023-04-06T08:54:56.004Z,0.60
2023-04-06T08:57:24.451Z,0.60
2023-04-06T08:59:53.377Z,0.60
2023-04-06T09:02:22.791Z,0.60
2023-04-06T09:04:54.701Z,0.60
2023-04-06T09:07:23.570Z,0.60
2023-04-06T09:09:52.960Z,0.60
2023-04-06T09:12:28.759Z,0.60
2023-04-06T09:14:57.625Z,0.60
2023-04-06T09:17:27.764Z,0.60
2023-04-06T09:19:56.913Z,0.60
2023-04-06T09:22:28.080Z,0.60
2023-04-06T09:24:57.634Z,0.50
2023-04-06T09:27:35.562Z,0.50
2023-04-06T09:30:08.917Z,0.40
2023-04-06T09:32:48.182Z,0.30
2023-04-06T09:35:16.739Z,0.30
2023-04-06T09:37:44.894Z,0.30
2023-04-06T09:40:15.865Z,0.30
2023-04-06T09:42:44.781Z,0.30
2023-04-06T09:45:13.206Z,0.30
2023-04-06T09:47:43.371Z,0.30
2023-04-06T09:50:13.346Z,0.30
2023-04-06T09:52:47.490Z,0.30
2023-04-06T09:55:35.450Z,0.30
2023-04-06T09:58:07.327Z,0.30
2023-04-06T10:00:45.193Z,0.20
2023-04-06T10:03:32.589Z,0.20
2023-04-06T10:06:07.036Z,0.40
2023-04-06T10:08:37.213Z,0.20
2023-04-06T10:11:06.940Z,0.30
2023-04-06T10:13:35.709Z,0.30
2023-04-06T10:16:04.075Z,0.20
2023-04-06T10:18:32.426Z,0.30
2023-04-06T10:21:05.296Z,0.30
2023-04-06T10:23:37.176Z,0.30
2023-04-06T10:26:07.503Z,0.20
2023-04-06T10:28:37.122Z,0.30
2023-04-06T10:31:08.155Z,0.30
2023-04-06T10:33:36.173Z,0.30
2023-04-06T10:36:12.768Z,0.30
2023-04-06T10:38:43.514Z,0.30
2023-04-06T10:41:15.088Z,0.20
2023-04-06T10:43:45.403Z,0.20
2023-04-06T10:46:14.497Z,0.20
2023-04-06T10:48:44.646Z,0.30
2023-04-06T10:51:14.257Z,0.20
2023-04-06T10:53:45.463Z,0.20
2023-04-06T10:56:17.079Z,0.20
2023-04-06T10:58:49.700Z,0.30
2023-04-06T11:01:18.991Z,0.20
2023-04-06T11:03:47.339Z,0.20
2023-04-06T11:06:21.221Z,0.20
2023-04-06T11:08:49.853Z,0.20
2023-04-06T11:11:21.141Z,0.20
2023-04-06T11:13:52.022Z,0.20
2023-04-06T11:16:21.396Z,0.30
2023-04-06T11:18:54.636Z,0.20
2023-04-06T11:21:35.363Z,0.27
2023-04-06T11:24:11.680Z,0.20
2023-04-06T11:26:43.049Z,0.27
2023-04-06T11:29:11.661Z,0.20
2023-04-06T11:31:45.079Z,0.20
2023-04-06T11:34:19.478Z,0.30
2023-04-06T11:36:48.943Z,0.20
2023-04-06T11:39:21.906Z,0.20
2023-04-06T11:41:51.923Z,0.20
2023-04-06T11:44:33.620Z,0.20
2023-04-06T11:47:03.322Z,0.20
2023-04-06T11:49:31.860Z,0.20
2023-04-06T11:52:01.292Z,0.23
2023-04-06T11:54:33.679Z,0.30
2023-04-06T11:57:04.626Z,0.30
2023-04-06T11:59:33.015Z,0.20
2023-04-06T12:02:01.170Z,0.20
2023-04-06T12:04:29.113Z,0.20
2023-04-06T12:06:57.262Z,0.20
2023-04-06T12:09:25.465Z,0.20
2023-04-06T12:11:53.417Z,0.30
2023-04-06T12:14:23.040Z,0.20
2023-04-06T12:16:50.920Z,0.20
2023-04-06T12:19:18.999Z,0.30
2023-04-06T12:21:47.037Z,0.30
2023-04-06T12:24:15.042Z,0.20
2023-04-06T12:26:43.294Z,0.20
2023-04-06T12:29:12.123Z,0.20
2023-04-06T12:31:45.580Z,0.30
2023-04-06T12:34:13.824Z,0.20
2023-04-06T12:36:41.823Z,0.30
2023-04-06T12:39:09.994Z,0.30
2023-04-06T12:41:38.144Z,0.20
2023-04-06T12:44:06.102Z,0.30
2023-04-06T12:46:34.214Z,0.27
2023-04-06T12:49:04.142Z,0.30
2023-04-06T12:51:33.007Z,0.30
2023-04-06T12:54:00.930Z,0.20
2023-04-06T12:56:29.124Z,0.30
2023-04-06T12:58:57.657Z,0.30
2023-04-06T13:03:54.501Z,0.30
2023-04-06T13:06:23.809Z,0.30
2023-04-06T13:08:53.358Z,0.20
2023-04-06T13:11:26.869Z,0.20
2023-04-06T13:13:56.234Z,0.20
2023-04-06T13:16:24.460Z,0.20
2023-04-06T13:18:52.385Z,0.20
2023-04-06T13:21:22.085Z,0.30
2023-04-06T13:23:53.424Z,0.20
2023-04-06T13:26:22.424Z,0.30
2023-04-06T13:28:50.642Z,0.30
2023-04-06T13:31:18.722Z,0.20
2023-04-06T13:33:46.900Z,0.30
2023-04-06T13:36:17.464Z,0.20
2023-04-06T13:38:46.295Z,0.30
2023-04-06T13:41:23.467Z,0.20
2023-04-06T13:43:51.949Z,0.30
2023-04-06T13:46:20.258Z,0.30
2023-04-06T13:48:49.122Z,0.20
2023-04-06T13:51:17.105Z,0.20
2023-04-06T13:53:45.130Z,0.20
2023-04-06T13:56:13.053Z,0.20
2023-04-06T13:58:45.908Z,0.30
2023-04-06T14:01:14.391Z,0.20
2023-04-06T14:03:43.344Z,0.23
2023-04-06T14:06:29.673Z,0.20
2023-04-06T14:08:59.433Z,0.30
2023-04-06T14:11:27.579Z,0.20
2023-04-06T14:13:58.511Z,0.20
2023-04-06T14:16:27.381Z,0.20
2023-04-06T14:18:56.134Z,0.30
2023-04-06T14:21:24.456Z,0.20
2023-04-06T14:23:53.651Z,0.20
2023-04-06T14:26:21.790Z,0.20
2023-04-06T14:28:50.063Z,0.20
2023-04-06T14:31:19.453Z,0.30
2023-04-06T14:33:47.722Z,0.30
2023-04-06T14:36:16.482Z,0.30
2023-04-06T14:38:45.209Z,0.20
2023-04-06T14:41:18.080Z,0.20
2023-04-06T14:43:46.339Z,0.27
2023-04-06T14:46:14.815Z,0.30
2023-04-06T14:48:44.198Z,0.20
2023-04-06T14:51:12.372Z,0.30
2023-04-06T14:53:40.350Z,0.30
2023-04-06T14:56:09.041Z,0.23
2023-04-06T14:58:37.289Z,0.20
2023-04-06T15:01:05.577Z,0.20
2023-04-06T15:03:33.448Z,0.30
2023-04-06T15:06:02.850Z,0.30
2023-04-06T15:08:30.760Z,0.30
2023-04-06T15:11:01.336Z,0.30
2023-04-06T15:13:29.370Z,0.30
2023-04-06T15:15:57.593Z,0.20
2023-04-06T15:18:26.271Z,0.23
2023-04-06T15:20:54.302Z,0.30
2023-04-06T15:23:26.450Z,0.30
2023-04-06T15:25:54.577Z,0.30
2023-04-06T15:28:24.931Z,0.30
2023-04-06T15:30:53.334Z,0.30
2023-04-06T15:33:25.256Z,0.30
2023-04-06T15:35:53.251Z,0.20
2023-04-06T15:38:22.310Z,0.20
2023-04-06T15:40:51.713Z,0.20
2023-04-06T15:43:19.895Z,0.30
2023-04-06T15:45:47.981Z,0.27
2023-04-06T15:48:16.387Z,0.30
2023-04-06T15:50:44.582Z,0.20
2023-04-06T15:53:12.742Z,0.20
2023-04-06T15:55:40.630Z,0.20
2023-04-06T15:58:10.132Z,0.30
2023-04-06T16:00:38.050Z,0.30
2023-04-06T16:03:06.285Z,0.20
2023-04-06T16:05:36.337Z,0.30
2023-04-06T16:08:17.031Z,0.20
2023-04-06T16:10:45.267Z,0.20
2023-04-06T16:13:16.697Z,0.20
2023-04-06T16:15:44.752Z,0.20
2023-04-06T16:18:12.636Z,0.20
2023-04-06T16:20:40.792Z,0.20
2023-04-06T16:23:14.860Z,0.20
2023-04-06T16:25:43.021Z,0.30
2023-04-06T16:28:11.324Z,0.30
2023-04-06T16:30:43.574Z,0.20
2023-04-06T16:33:13.886Z,0.30
2023-04-06T16:35:45.770Z,0.20
2023-04-06T16:38:26.294Z,0.20
2023-04-06T16:41:01.659Z,0.20
2023-04-06T16:43:29.734Z,0.20
2023-04-06T16:45:59.290Z,0.20
2023-04-06T16:48:27.467Z,0.20
2023-04-06T17:11:03.069Z,0.20
2023-04-06T17:13:32.492Z,0.20
2023-04-06T17:16:04.617Z,0.27
2023-04-06T17:18:34.780Z,0.30
2023-04-06T17:21:06.899Z,0.20
2023-04-06T17:23:35.347Z,0.20
2023-04-06T17:26:07.577Z,0.20
2023-04-06T17:28:35.812Z,0.30
2023-04-06T17:31:07.982Z,0.30
2023-04-06T17:33:36.479Z,0.23
2023-04-06T17:36:04.633Z,0.23
2023-04-06T17:38:45.889Z,0.30
2023-04-06T17:41:16.120Z,0.20
2023-04-06T17:43:44.063Z,0.30
2023-04-06T17:46:12.302Z,0.30
2023-04-06T17:48:40.629Z,0.30
2023-04-06T17:51:08.595Z,0.20
2023-04-06T17:53:37.230Z,0.20
2023-04-06T17:56:05.487Z,0.20
2023-04-06T17:58:35.411Z,0.30
2023-04-06T18:01:08.446Z,0.20
2023-04-06T18:03:36.769Z,0.30
2023-04-06T18:06:12.334Z,0.20
2023-04-06T18:08:40.431Z,0.20
2023-04-06T18:11:08.990Z,0.30
2023-04-06T18:13:40.085Z,0.20
2023-04-06T18:16:10.795Z,0.20
2023-04-06T18:18:39.161Z,0.20
2023-04-06T18:21:10.568Z,0.30
2023-04-06T18:23:38.828Z,0.33
2023-04-06T18:26:07.542Z,0.30
2023-04-06T18:28:39.702Z,0.20
2023-04-06T18:31:07.750Z,0.30
2023-04-06T18:33:35.728Z,0.20
2023-04-06T18:36:04.496Z,0.30
2023-04-06T18:38:32.461Z,0.20
2023-04-06T18:41:00.487Z,0.20
2023-04-06T18:43:28.726Z,0.20
2023-04-06T18:45:58.035Z,0.30
2023-04-06T18:48:25.993Z,0.20
2023-04-06T18:50:54.353Z,0.20
2023-04-06T18:53:23.701Z,0.20
2023-04-06T18:55:54.377Z,0.20
2023-04-06T18:58:23.399Z,0.20
2023-04-06T19:00:51.436Z,0.20
2023-04-06T19:03:22.104Z,0.20
2023-04-06T19:05:50.616Z,0.20
2023-04-06T19:08:18.680Z,0.30
2023-04-06T19:10:48.993Z,0.20
2023-04-06T19:13:19.554Z,0.20
2023-04-06T19:15:47.517Z,0.20
2023-04-06T19:18:15.564Z,0.27
2023-04-06T19:20:45.516Z,0.20
2023-04-06T19:23:13.911Z,0.20
2023-04-06T19:25:44.361Z,0.20
2023-04-06T19:28:14.461Z,0.20
2023-04-06T19:30:48.271Z,0.20
2023-04-06T19:33:17.363Z,0.20
2023-04-06T19:35:49.396Z,0.20
2023-04-06T19:38:17.306Z,0.30
2023-04-06T19:40:45.398Z,0.20
2023-04-06T19:43:16.376Z,0.20
2023-04-06T19:45:44.767Z,0.20
2023-04-06T19:48:13.154Z,0.30
2023-04-06T19:50:41.182Z,0.20
2023-04-06T19:53:10.860Z,0.20
2023-04-06T19:55:39.315Z,0.20
2023-04-06T19:58:07.513Z,0.20
2023-04-06T20:00:35.824Z,0.23
2023-04-06T20:03:04.121Z,0.20
2023-04-06T20:05:47.863Z,0.20
2023-04-06T20:08:17.245Z,0.30
2023-04-06T20:10:47.333Z,0.20
2023-04-06T20:13:15.683Z,0.20
2023-04-06T20:15:43.884Z,0.30
2023-04-06T20:18:14.124Z,0.20
2023-04-06T20:20:42.553Z,0.23
2023-04-06T20:23:12.731Z,0.30
2023-04-06T20:25:42.201Z,0.23
2023-04-06T20:28:10.900Z,0.20
2023-04-06T20:30:39.426Z,0.20
2023-04-06T20:33:07.576Z,0.20
2023-04-06T20:35:36.176Z,0.20
2023-04-06T20:38:04.663Z,0.20
2023-04-06T20:40:32.759Z,0.20
2023-04-06T20:43:03.356Z,0.20
2023-04-06T20:45:38.573Z,0.20
2023-04-06T20:48:06.697Z,0.30
2023-04-06T20:50:34.842Z,0.10
2023-04-06T20:53:02.891Z,0.20
2023-04-06T20:55:31.305Z,0.20
2023-04-06T20:57:59.492Z,0.20
2023-04-06T21:00:29.042Z,0.20
2023-04-06T21:02:57.265Z,0.30
2023-04-06T21:05:25.880Z,0.20
2023-04-06T21:07:53.920Z,0.30
2023-04-06T21:10:24.018Z,0.20
2023-04-06T21:12:52.112Z,0.20
2023-04-06T21:15:26.814Z,0.27
2023-04-06T21:17:56.726Z,0.20
2023-04-06T21:20:25.606Z,0.20
2023-04-06T21:22:53.808Z,0.20
2023-04-06T21:25:22.380Z,0.20
2023-04-06T21:27:53.393Z,0.30
2023-04-06T21:30:21.992Z,0.20
2023-04-06T21:32:50.174Z,0.20
2023-04-06T21:35:20.031Z,0.20
2023-04-06T21:37:48.029Z,0.20
2023-04-06T21:40:15.948Z,0.20
2023-04-06T21:42:44.206Z,0.20
2023-04-06T21:45:12.721Z,0.20
2023-04-06T21:47:41.042Z,0.20
2023-04-06T21:50:09.431Z,0.20
2023-04-06T21:52:39.158Z,0.20
2023-04-06T21:55:08.046Z,0.20
2023-04-06T21:57:36.953Z,0.20
2023-04-06T22:00:09.829Z,0.20
2023-04-06T22:02:39.438Z,0.20
2023-04-06T22:05:08.650Z,0.20
2023-04-06T22:07:38.709Z,0.20
2023-04-06T22:10:07.642Z,0.10
2023-04-06T22:12:36.032Z,0.20
2023-04-06T22:15:05.411Z,0.20
2023-04-06T22:17:45.428Z,0.20
2023-04-06T22:20:13.818Z,0.20
2023-04-06T22:22:43.369Z,0.13
2023-04-06T22:25:23.451Z,0.20
2023-04-06T22:27:53.493Z,0.20
2023-04-06T22:30:21.786Z,0.10
2023-04-06T22:32:49.861Z,0.20
2023-04-06T22:35:21.348Z,0.20
2023-04-06T22:37:53.044Z,0.20
2023-04-06T22:40:21.086Z,0.30
2023-04-06T22:42:49.281Z,0.20
2023-04-06T22:45:17.763Z,0.20
2023-04-06T22:47:45.897Z,0.20
2023-04-06T22:50:15.345Z,0.20
2023-04-06T22:52:43.504Z,0.10
2023-04-06T22:55:12.941Z,0.20
2023-04-06T22:57:40.991Z,0.20
2023-04-06T23:00:10.585Z,0.20
2023-04-06T23:02:39.879Z,0.20
2023-04-06T23:05:08.370Z,0.20
2023-04-06T23:07:36.655Z,0.20
2023-04-06T23:10:04.794Z,0.20
2023-04-06T23:12:34.362Z,0.20
2023-04-06T23:15:02.526Z,0.20
2023-04-06T23:17:30.810Z,0.20
2023-04-06T23:19:58.864Z,0.20
2023-04-06T23:22:27.112Z,0.20
2023-04-06T23:24:55.216Z,0.20
2023-04-06T23:27:23.250Z,0.20
2023-04-06T23:29:52.541Z,0.20
2023-04-06T23:32:20.499Z,0.20
2023-04-06T23:34:48.739Z,0.20
2023-04-06T23:37:16.746Z,0.20
2023-04-06T23:39:45.342Z,0.20
2023-04-06T23:42:13.253Z,0.20
2023-04-06T23:44:41.328Z,0.20
2023-04-06T23:47:11.862Z,0.20
2023-04-06T23:49:39.801Z,0.20
2023-04-06T23:52:07.879Z,0.20
2023-04-06T23:54:36.237Z,0.20
2023-04-06T23:57:04.540Z,0.13
2023-04-06T23:59:32.609Z,0.20
